sensor_id;sensor_type;location;lat;lon;timestamp;temperature;humidity
34201;DHT22;20469;55.638;37.670;2022-11-20T00:04:22;-1.40;99.90
34201;DHT22;20469;55.638;37.670;2022-11-20T00:06:52;-1.40;99.90
34201;DHT22;20469;55.638;37.670;2022-11-20T00:09:22;-1.40;99.90
34201;DHT22;20469;55.638;37.670;2022-11-20T00:11:56;-1.40;99.90
34201;DHT22;20469;55.638;37.670;2022-11-20T00:16:54;-1.40;99.90
34201;DHT22;20469;55.638;37.670;2022-11-20T00:19:26;-1.60;99.90
34201;DHT22;20469;55.638;37.670;2022-11-20T00:21:56;-1.40;99.90
34201;DHT22;20469;55.638;37.670;2022-11-20T00:24:27;-1.50;99.90
34201;DHT22;20469;55.638;37.670;2022-11-20T00:26:56;-1.50;99.90
34201;DHT22;20469;55.638;37.670;2022-11-20T00:29:27;-1.50;99.90
34201;DHT22;20469;55.638;37.670;2022-11-20T00:31:57;-1.80;99.90
34201;DHT22;20469;55.638;37.670;2022-11-20T00:34:27;-1.30;99.90
34201;DHT22;20469;55.638;37.670;2022-11-20T00:36:57;-1.30;99.90
34201;DHT22;20469;55.638;37.670;2022-11-20T00:39:31;-1.50;99.90
34201;DHT22;20469;55.638;37.670;2022-11-20T00:44:29;-1.20;99.90
34201;DHT22;20469;55.638;37.670;2022-11-20T00:49:33;-1.60;99.90
34201;DHT22;20469;55.638;37.670;2022-11-20T00:52:04;-1.30;99.90
34201;DHT22;20469;55.638;37.670;2022-11-20T00:54:33;-1.70;99.90
34201;DHT22;20469;55.638;37.670;2022-11-20T00:57:06;-1.70;99.90
34201;DHT22;20469;55.638;37.670;2022-11-20T01:04:34;-1.80;99.90
34201;DHT22;20469;55.638;37.670;2022-11-20T01:07:04;-1.80;99.90
34201;DHT22;20469;55.638;37.670;2022-11-20T01:09:34;1.00;99.90
34201;DHT22;20469;55.638;37.670;2022-11-20T01:14:33;-1.80;99.90
34201;DHT22;20469;55.638;37.670;2022-11-20T01:17:04;-1.90;99.90
34201;DHT22;20469;55.638;37.670;2022-11-20T01:36:51;-1.80;99.90
34201;DHT22;20469;55.638;37.670;2022-11-20T01:39:23;-1.90;99.90
34201;DHT22;20469;55.638;37.670;2022-11-20T01:41:54;-1.90;99.90
34201;DHT22;20469;55.638;37.670;2022-11-20T01:44:54;-1.90;99.90
34201;DHT22;20469;55.638;37.670;2022-11-20T01:47:34;-2.00;99.90
34201;DHT22;20469;55.638;37.670;2022-11-20T01:50:13;-1.90;99.90
34201;DHT22;20469;55.638;37.670;2022-11-20T01:52:46;-1.80;99.90
34201;DHT22;20469;55.638;37.670;2022-11-20T01:55:20;-1.70;99.90
34201;DHT22;20469;55.638;37.670;2022-11-20T02:00:18;-2.00;99.90
34201;DHT22;20469;55.638;37.670;2022-11-20T02:02:54;-2.00;99.90
34201;DHT22;20469;55.638;37.670;2022-11-20T02:05:31;-1.90;99.90
34201;DHT22;20469;55.638;37.670;2022-11-20T02:15:42;-2.80;99.90
34201;DHT22;20469;55.638;37.670;2022-11-20T02:18:11;-2.00;99.90
34201;DHT22;20469;55.638;37.670;2022-11-20T02:20:43;-1.90;99.90
34201;DHT22;20469;55.638;37.670;2022-11-20T02:23:27;-2.00;99.90
34201;DHT22;20469;55.638;37.670;2022-11-20T02:25:58;-1.90;99.90
34201;DHT22;20469;55.638;37.670;2022-11-20T03:12:55;-1.90;99.90
34201;DHT22;20469;55.638;37.670;2022-11-20T03:15:23;-2.00;99.90
34201;DHT22;20469;55.638;37.670;2022-11-20T03:17:54;-2.00;99.90
34201;DHT22;20469;55.638;37.670;2022-11-20T03:30:14;-1.70;99.90
34201;DHT22;20469;55.638;37.670;2022-11-20T03:40:06;-2.10;99.90
34201;DHT22;20469;55.638;37.670;2022-11-20T03:45:17;0.00;99.90
34201;DHT22;20469;55.638;37.670;2022-11-20T04:12:25;-2.20;99.90
34201;DHT22;20469;55.638;37.670;2022-11-20T04:24:43;-2.00;99.90
34201;DHT22;20469;55.638;37.670;2022-11-20T05:36:30;-1.70;99.90
34201;DHT22;20469;55.638;37.670;2022-11-20T05:38:58;-1.40;99.90
34201;DHT22;20469;55.638;37.670;2022-11-20T05:41:28;-1.50;99.90
34201;DHT22;20469;55.638;37.670;2022-11-20T05:46:25;-1.60;99.90
34201;DHT22;20469;55.638;37.670;2022-11-20T05:48:56;-1.70;99.90
34201;DHT22;20469;55.638;37.670;2022-11-20T05:51:25;-1.80;99.90
34201;DHT22;20469;55.638;37.670;2022-11-20T06:01:21;-1.90;99.90
34201;DHT22;20469;55.638;37.670;2022-11-20T06:03:50;-1.80;99.90
34201;DHT22;20469;55.638;37.670;2022-11-20T06:06:18;-1.80;99.90
34201;DHT22;20469;55.638;37.670;2022-11-20T06:08:47;-1.80;99.90
34201;DHT22;20469;55.638;37.670;2022-11-20T06:11:16;-1.90;99.90
34201;DHT22;20469;55.638;37.670;2022-11-20T06:16:15;-1.80;99.90
34201;DHT22;20469;55.638;37.670;2022-11-20T06:21:13;-1.90;99.90
34201;DHT22;20469;55.638;37.670;2022-11-20T06:26:15;-1.90;99.90
34201;DHT22;20469;55.638;37.670;2022-11-20T06:31:15;-2.00;99.90
34201;DHT22;20469;55.638;37.670;2022-11-20T06:33:45;-2.20;99.90
34201;DHT22;20469;55.638;37.670;2022-11-20T06:36:19;-2.10;99.90
34201;DHT22;20469;55.638;37.670;2022-11-20T06:38:50;-2.10;99.90
34201;DHT22;20469;55.638;37.670;2022-11-20T06:41:21;-2.10;99.90
34201;DHT22;20469;55.638;37.670;2022-11-20T06:43:52;-2.10;99.90
34201;DHT22;20469;55.638;37.670;2022-11-20T06:46:22;-2.00;99.90
34201;DHT22;20469;55.638;37.670;2022-11-20T06:48:53;-1.30;99.90
34201;DHT22;20469;55.638;37.670;2022-11-20T06:53:53;-1.70;99.90
34201;DHT22;20469;55.638;37.670;2022-11-20T06:58:55;-2.10;99.90
34201;DHT22;20469;55.638;37.670;2022-11-20T07:08:50;-1.90;99.90
34201;DHT22;20469;55.638;37.670;2022-11-20T07:18:43;-1.80;99.90
34201;DHT22;20469;55.638;37.670;2022-11-20T07:21:17;-2.20;99.90
34201;DHT22;20469;55.638;37.670;2022-11-20T07:28:44;-1.90;99.90
34201;DHT22;20469;55.638;37.670;2022-11-20T07:33:46;-1.90;99.90
34201;DHT22;20469;55.638;37.670;2022-11-20T07:43:36;-1.80;99.90
34201;DHT22;20469;55.638;37.670;2022-11-20T07:56:00;-1.80;99.90
34201;DHT22;20469;55.638;37.670;2022-11-20T07:58:29;-1.70;99.90
34201;DHT22;20469;55.638;37.670;2022-11-20T08:16:01;-1.80;99.90
34201;DHT22;20469;55.638;37.670;2022-11-20T08:18:31;-1.70;99.90
34201;DHT22;20469;55.638;37.670;2022-11-20T08:21:03;-1.60;99.90
34201;DHT22;20469;55.638;37.670;2022-11-20T08:31:00;-1.60;99.90
34201;DHT22;20469;55.638;37.670;2022-11-20T08:33:28;-1.50;99.90
34201;DHT22;20469;55.638;37.670;2022-11-20T08:36:01;-1.60;99.90
34201;DHT22;20469;55.638;37.670;2022-11-20T08:41:02;-1.50;99.90
34201;DHT22;20469;55.638;37.670;2022-11-20T08:43:45;-1.30;99.90
34201;DHT22;20469;55.638;37.670;2022-11-20T08:48:43;-1.50;99.90
34201;DHT22;20469;55.638;37.670;2022-11-20T08:51:13;-1.40;99.90
34201;DHT22;20469;55.638;37.670;2022-11-20T08:56:11;-1.40;99.90
34201;DHT22;20469;55.638;37.670;2022-11-20T08:58:40;-1.60;99.90
34201;DHT22;20469;55.638;37.670;2022-11-20T09:01:31;-1.30;99.90
34201;DHT22;20469;55.638;37.670;2022-11-20T09:04:02;-0.60;99.90
34201;DHT22;20469;55.638;37.670;2022-11-20T09:06:33;-1.20;99.90
34201;DHT22;20469;55.638;37.670;2022-11-20T09:09:04;-1.20;99.90
34201;DHT22;20469;55.638;37.670;2022-11-20T09:11:35;-1.20;99.90
34201;DHT22;20469;55.638;37.670;2022-11-20T09:14:04;-1.30;99.90
34201;DHT22;20469;55.638;37.670;2022-11-20T09:16:33;-1.00;99.90
34201;DHT22;20469;55.638;37.670;2022-11-20T09:24:26;-1.40;99.90
34201;DHT22;20469;55.638;37.670;2022-11-20T09:34:20;-1.10;99.90
34201;DHT22;20469;55.638;37.670;2022-11-20T09:42:06;-0.80;99.90
34201;DHT22;20469;55.638;37.670;2022-11-20T09:45:02;-0.70;99.90
34201;DHT22;20469;55.638;37.670;2022-11-20T09:47:46;-0.80;99.90
34201;DHT22;20469;55.638;37.670;2022-11-20T09:50:36;-0.80;99.90
34201;DHT22;20469;55.638;37.670;2022-11-20T09:53:23;-0.80;99.90
34201;DHT22;20469;55.638;37.670;2022-11-20T09:55:54;-1.00;99.90
34201;DHT22;20469;55.638;37.670;2022-11-20T09:58:30;-1.10;99.90
34201;DHT22;20469;55.638;37.670;2022-11-20T10:01:08;-1.10;99.90
34201;DHT22;20469;55.638;37.670;2022-11-20T10:04:03;-1.10;99.90
34201;DHT22;20469;55.638;37.670;2022-11-20T10:06:32;-1.10;99.90
34201;DHT22;20469;55.638;37.670;2022-11-20T10:09:18;-0.90;99.90
34201;DHT22;20469;55.638;37.670;2022-11-20T10:12:59;-1.20;99.90
34201;DHT22;20469;55.638;37.670;2022-11-20T10:17:55;-0.90;99.90
34201;DHT22;20469;55.638;37.670;2022-11-20T10:20:48;-1.10;99.90
34201;DHT22;20469;55.638;37.670;2022-11-20T10:23:32;-0.80;99.90
34201;DHT22;20469;55.638;37.670;2022-11-20T10:26:17;-0.80;99.90
34201;DHT22;20469;55.638;37.670;2022-11-20T10:29:07;-0.80;99.90
34201;DHT22;20469;55.638;37.670;2022-11-20T10:31:40;-0.70;99.90
34201;DHT22;20469;55.638;37.670;2022-11-20T10:34:26;-0.80;99.90
34201;DHT22;20469;55.638;37.670;2022-11-20T10:37:01;-0.70;99.90
34201;DHT22;20469;55.638;37.670;2022-11-20T10:39:45;-0.60;99.90
34201;DHT22;20469;55.638;37.670;2022-11-20T10:42:28;-0.50;99.90
34201;DHT22;20469;55.638;37.670;2022-11-20T10:45:19;-0.20;99.90
34201;DHT22;20469;55.638;37.670;2022-11-20T10:50:21;-0.40;99.90
34201;DHT22;20469;55.638;37.670;2022-11-20T10:53:01;-0.20;99.90
34201;DHT22;20469;55.638;37.670;2022-11-20T10:55:50;-0.50;99.90
34201;DHT22;20469;55.638;37.670;2022-11-20T11:01:17;-0.40;99.90
34201;DHT22;20469;55.638;37.670;2022-11-20T11:03:45;-0.40;99.90
34201;DHT22;20469;55.638;37.670;2022-11-20T11:06:37;-0.50;99.90
34201;DHT22;20469;55.638;37.670;2022-11-20T11:09:13;-0.30;99.90
34201;DHT22;20469;55.638;37.670;2022-11-20T11:11:43;-0.20;99.90
34201;DHT22;20469;55.638;37.670;2022-11-20T11:14:15;-0.70;99.90
34201;DHT22;20469;55.638;37.670;2022-11-20T11:16:51;-0.70;99.90
34201;DHT22;20469;55.638;37.670;2022-11-20T11:21:54;-0.10;99.90
34201;DHT22;20469;55.638;37.670;2022-11-20T11:24:27;-0.60;99.90
34201;DHT22;20469;55.638;37.670;2022-11-20T11:27:14;-0.40;99.90
34201;DHT22;20469;55.638;37.670;2022-11-20T11:29:46;-0.20;99.90
34201;DHT22;20469;55.638;37.670;2022-11-20T11:32:18;-0.20;99.90
34201;DHT22;20469;55.638;37.670;2022-11-20T11:35:06;-0.40;99.90
34201;DHT22;20469;55.638;37.670;2022-11-20T11:37:38;-0.40;99.90
34201;DHT22;20469;55.638;37.670;2022-11-20T11:40:11;-0.20;99.90
34201;DHT22;20469;55.638;37.670;2022-11-20T11:42:57;-0.20;99.90
34201;DHT22;20469;55.638;37.670;2022-11-20T11:45:26;-0.50;99.90
34201;DHT22;20469;55.638;37.670;2022-11-20T11:47:57;-0.30;99.90
34201;DHT22;20469;55.638;37.670;2022-11-20T11:50:29;-0.70;99.90
34201;DHT22;20469;55.638;37.670;2022-11-20T11:53:08;-0.70;99.90
34201;DHT22;20469;55.638;37.670;2022-11-20T12:01:43;-0.30;99.90
34201;DHT22;20469;55.638;37.670;2022-11-20T12:07:20;-0.30;99.90
34201;DHT22;20469;55.638;37.670;2022-11-20T12:10:22;-0.40;99.90
34201;DHT22;20469;55.638;37.670;2022-11-20T12:13:04;-0.40;99.90
34201;DHT22;20469;55.638;37.670;2022-11-20T12:15:35;-0.50;99.90
34201;DHT22;20469;55.638;37.670;2022-11-20T12:18:10;-0.50;99.90
34201;DHT22;20469;55.638;37.670;2022-11-20T12:20:53;-0.20;99.90
34201;DHT22;20469;55.638;37.670;2022-11-20T12:23:33;-0.10;99.90
34201;DHT22;20469;55.638;37.670;2022-11-20T12:26:10;-0.20;99.90
34201;DHT22;20469;55.638;37.670;2022-11-20T12:28:52;-0.30;99.90
34201;DHT22;20469;55.638;37.670;2022-11-20T12:31:37;-0.40;99.90
34201;DHT22;20469;55.638;37.670;2022-11-20T12:37:39;-0.50;99.90
34201;DHT22;20469;55.638;37.670;2022-11-20T12:40:34;-0.30;99.90
34201;DHT22;20469;55.638;37.670;2022-11-20T12:43:21;-0.50;99.90
34201;DHT22;20469;55.638;37.670;2022-11-20T12:46:22;-0.40;99.90
34201;DHT22;20469;55.638;37.670;2022-11-20T12:52:02;-0.30;99.90
34201;DHT22;20469;55.638;37.670;2022-11-20T12:54:46;-0.20;99.90
34201;DHT22;20469;55.638;37.670;2022-11-20T12:57:34;-0.20;99.90
34201;DHT22;20469;55.638;37.670;2022-11-20T13:00:14;-0.30;99.90
34201;DHT22;20469;55.638;37.670;2022-11-20T13:06:11;-0.20;99.90
34201;DHT22;20469;55.638;37.670;2022-11-20T13:08:49;-0.70;99.90
34201;DHT22;20469;55.638;37.670;2022-11-20T13:11:32;-0.50;99.90
34201;DHT22;20469;55.638;37.670;2022-11-20T13:14:13;-0.60;99.90
34201;DHT22;20469;55.638;37.670;2022-11-20T13:16:53;-0.60;99.90
34201;DHT22;20469;55.638;37.670;2022-11-20T13:19:30;-0.80;99.90
34201;DHT22;20469;55.638;37.670;2022-11-20T13:24:31;-0.70;99.90
34201;DHT22;20469;55.638;37.670;2022-11-20T13:27:02;-0.60;99.90
34201;DHT22;20469;55.638;37.670;2022-11-20T13:29:35;-0.50;99.90
34201;DHT22;20469;55.638;37.670;2022-11-20T13:32:20;-0.60;99.90
34201;DHT22;20469;55.638;37.670;2022-11-20T13:34:58;-0.70;99.90
34201;DHT22;20469;55.638;37.670;2022-11-20T13:37:33;-0.80;99.90
34201;DHT22;20469;55.638;37.670;2022-11-20T13:40:13;-0.90;99.90
34201;DHT22;20469;55.638;37.670;2022-11-20T13:42:46;-0.80;99.90
34201;DHT22;20469;55.638;37.670;2022-11-20T13:45:26;-0.70;99.90
34201;DHT22;20469;55.638;37.670;2022-11-20T13:47:58;-0.70;99.90
34201;DHT22;20469;55.638;37.670;2022-11-20T14:02:17;-0.60;99.90
34201;DHT22;20469;55.638;37.670;2022-11-20T14:04:50;-0.70;99.90
34201;DHT22;20469;55.638;37.670;2022-11-20T14:07:22;-0.60;99.90
34201;DHT22;20469;55.638;37.670;2022-11-20T14:09:54;-0.70;99.90
34201;DHT22;20469;55.638;37.670;2022-11-20T14:12:31;-0.70;99.90
34201;DHT22;20469;55.638;37.670;2022-11-20T14:15:02;-0.70;99.90
34201;DHT22;20469;55.638;37.670;2022-11-20T14:17:34;-0.70;99.90
34201;DHT22;20469;55.638;37.670;2022-11-20T14:20:11;-0.60;99.90
34201;DHT22;20469;55.638;37.670;2022-11-20T14:22:52;-0.70;99.90
34201;DHT22;20469;55.638;37.670;2022-11-20T14:25:29;-0.70;99.90
34201;DHT22;20469;55.638;37.670;2022-11-20T14:28:00;-0.60;99.90
34201;DHT22;20469;55.638;37.670;2022-11-20T14:30:44;-0.60;99.90
34201;DHT22;20469;55.638;37.670;2022-11-20T14:33:23;-0.60;99.90
34201;DHT22;20469;55.638;37.670;2022-11-20T14:35:57;-0.60;99.90
34201;DHT22;20469;55.638;37.670;2022-11-20T14:38:26;-0.50;99.90
34201;DHT22;20469;55.638;37.670;2022-11-20T14:41:09;-0.60;99.90
34201;DHT22;20469;55.638;37.670;2022-11-20T14:43:46;-0.60;99.90
34201;DHT22;20469;55.638;37.670;2022-11-20T14:46:15;-0.90;99.90
34201;DHT22;20469;55.638;37.670;2022-11-20T14:48:54;-0.80;99.90
34201;DHT22;20469;55.638;37.670;2022-11-20T14:51:30;-0.70;99.90
34201;DHT22;20469;55.638;37.670;2022-11-20T14:54:15;-0.50;99.90
34201;DHT22;20469;55.638;37.670;2022-11-20T14:57:00;-0.70;99.90
34201;DHT22;20469;55.638;37.670;2022-11-20T14:59:35;-0.30;99.90
34201;DHT22;20469;55.638;37.670;2022-11-20T15:02:07;-0.80;99.90
34201;DHT22;20469;55.638;37.670;2022-11-20T15:04:59;-0.70;99.90
34201;DHT22;20469;55.638;37.670;2022-11-20T15:07:34;-0.60;99.90
34201;DHT22;20469;55.638;37.670;2022-11-20T15:10:05;-0.70;99.90
34201;DHT22;20469;55.638;37.670;2022-11-20T15:12:37;-0.70;99.90
34201;DHT22;20469;55.638;37.670;2022-11-20T15:15:10;-0.60;99.90
34201;DHT22;20469;55.638;37.670;2022-11-20T15:17:40;-0.30;99.90
34201;DHT22;20469;55.638;37.670;2022-11-20T15:20:14;-0.40;99.90
34201;DHT22;20469;55.638;37.670;2022-11-20T15:25:14;-0.60;99.90
34201;DHT22;20469;55.638;37.670;2022-11-20T15:27:42;-0.60;99.90
34201;DHT22;20469;55.638;37.670;2022-11-20T15:30:17;-0.60;99.90
34201;DHT22;20469;55.638;37.670;2022-11-20T15:35:15;-0.60;99.90
34201;DHT22;20469;55.638;37.670;2022-11-20T15:45:40;-0.60;99.90
34201;DHT22;20469;55.638;37.670;2022-11-20T15:48:12;-0.60;99.90
34201;DHT22;20469;55.638;37.670;2022-11-20T15:53:38;-0.60;99.90
34201;DHT22;20469;55.638;37.670;2022-11-20T15:56:11;-0.40;99.90
34201;DHT22;20469;55.638;37.670;2022-11-20T16:01:11;-0.40;99.90
34201;DHT22;20469;55.638;37.670;2022-11-20T16:03:41;-0.50;99.90
34201;DHT22;20469;55.638;37.670;2022-11-20T16:11:12;-0.50;99.90
34201;DHT22;20469;55.638;37.670;2022-11-20T16:16:30;-0.70;99.90
34201;DHT22;20469;55.638;37.670;2022-11-20T16:18:59;-0.40;99.90
34201;DHT22;20469;55.638;37.670;2022-11-20T16:23:59;-0.60;99.90
34201;DHT22;20469;55.638;37.670;2022-11-20T16:28:58;-0.60;99.90
34201;DHT22;20469;55.638;37.670;2022-11-20T16:33:57;-0.80;99.90
34201;DHT22;20469;55.638;37.670;2022-11-20T16:36:27;-0.50;99.90
34201;DHT22;20469;55.638;37.670;2022-11-20T16:38:59;-0.50;99.90
34201;DHT22;20469;55.638;37.670;2022-11-20T16:41:30;-0.40;99.90
34201;DHT22;20469;55.638;37.670;2022-11-20T16:44:00;-0.40;99.90
34201;DHT22;20469;55.638;37.670;2022-11-20T16:46:30;1.10;99.90
34201;DHT22;20469;55.638;37.670;2022-11-20T16:49:00;-0.50;99.90
34201;DHT22;20469;55.638;37.670;2022-11-20T16:51:30;-0.50;99.90
34201;DHT22;20469;55.638;37.670;2022-11-20T16:54:02;-0.60;99.90
34201;DHT22;20469;55.638;37.670;2022-11-20T16:56:30;-0.80;99.90
34201;DHT22;20469;55.638;37.670;2022-11-20T16:59:01;-0.60;99.90
34201;DHT22;20469;55.638;37.670;2022-11-20T17:04:01;-0.70;99.90
34201;DHT22;20469;55.638;37.670;2022-11-20T17:06:33;-0.80;99.90
34201;DHT22;20469;55.638;37.670;2022-11-20T17:13:57;-0.80;99.90
34201;DHT22;20469;55.638;37.670;2022-11-20T17:16:29;-0.80;99.90
34201;DHT22;20469;55.638;37.670;2022-11-20T17:18:59;-1.00;99.90
34201;DHT22;20469;55.638;37.670;2022-11-20T17:21:32;-0.80;99.90
34201;DHT22;20469;55.638;37.670;2022-11-20T17:24:05;-0.90;99.90
34201;DHT22;20469;55.638;37.670;2022-11-20T17:26:38;-0.70;99.90
34201;DHT22;20469;55.638;37.670;2022-11-20T17:29:11;-0.70;99.90
34201;DHT22;20469;55.638;37.670;2022-11-20T17:31:42;-0.70;99.90
34201;DHT22;20469;55.638;37.670;2022-11-20T17:34:14;-0.90;99.90
34201;DHT22;20469;55.638;37.670;2022-11-20T17:36:43;-0.80;99.90
34201;DHT22;20469;55.638;37.670;2022-11-20T17:39:16;-0.80;99.90
34201;DHT22;20469;55.638;37.670;2022-11-20T17:41:44;-0.80;99.90
34201;DHT22;20469;55.638;37.670;2022-11-20T18:02:35;-1.00;99.90
34201;DHT22;20469;55.638;37.670;2022-11-20T18:05:05;-1.10;99.90
34201;DHT22;20469;55.638;37.670;2022-11-20T18:15:05;-1.20;99.90
34201;DHT22;20469;55.638;37.670;2022-11-20T18:25:20;-0.80;99.90
34201;DHT22;20469;55.638;37.670;2022-11-20T18:40:10;-0.90;99.90
34201;DHT22;20469;55.638;37.670;2022-11-20T18:45:23;-1.00;99.90
34201;DHT22;20469;55.638;37.670;2022-11-20T18:47:58;-1.00;99.90
34201;DHT22;20469;55.638;37.670;2022-11-20T18:50:27;-1.20;99.90
34201;DHT22;20469;55.638;37.670;2022-11-20T19:02:52;-1.10;99.90
34201;DHT22;20469;55.638;37.670;2022-11-20T19:10:21;-1.10;99.90
34201;DHT22;20469;55.638;37.670;2022-11-20T19:25:14;-1.40;99.90
34201;DHT22;20469;55.638;37.670;2022-11-20T19:37:42;-1.10;99.90
34201;DHT22;20469;55.638;37.670;2022-11-20T20:00:28;-1.00;99.90
34201;DHT22;20469;55.638;37.670;2022-11-20T20:47:47;-0.80;99.90
34201;DHT22;20469;55.638;37.670;2022-11-20T21:20:15;-1.00;99.90
34201;DHT22;20469;55.638;37.670;2022-11-20T21:22:58;-1.40;99.90
34201;DHT22;20469;55.638;37.670;2022-11-20T21:32:51;-1.50;99.90
34201;DHT22;20469;55.638;37.670;2022-11-20T21:50:10;-1.30;99.90
34201;DHT22;20469;55.638;37.670;2022-11-20T21:55:06;-0.80;99.90
34201;DHT22;20469;55.638;37.670;2022-11-20T21:57:34;-1.40;99.90
34201;DHT22;20469;55.638;37.670;2022-11-20T22:00:03;-1.20;99.90
34201;DHT22;20469;55.638;37.670;2022-11-20T22:22:38;-1.50;99.90
34201;DHT22;20469;55.638;37.670;2022-11-20T22:42:22;-1.10;99.90
34201;DHT22;20469;55.638;37.670;2022-11-20T23:41:34;-1.90;99.90
34201;DHT22;20469;55.638;37.670;2022-11-20T23:53:55;-1.60;99.90
